Beauvechain, Belgium

04:00 CEST le 25 septembre 2016 (GMT +0200)
Avenue des Cerisiers | | Change Station

Alt. 213 ft 50.78 °N, 4.72 °E | Updated 7 minutes ago

Clear
Ciel dégagé
56.1 ° F
Paraît 56.1 ° F
N
0.6
Vent Variable Vent de SE
Gusts 2.5 mph

Aujourd'hui
Haut(e) -- | Bas -- ° F
--% Risque de précip.
Hier
Haut(e) -- | Bas -- ° F
Precip. -- pouce
Pression 30.01 pouce
Visibilité -9999.0 Miles terrestres
Nuages
Point de rosée 49 ° F
Humidité 76%
Précipitations 0.00 pouce
Profondeur de la couche neigeuse Non disponible.
7:32 AM 7:31 PM
Lune descendante, 32% visible
METAR EBBR 250150Z 16009KT CAVOK 14/08 Q1016 NOSIG
Pression 30.01 pouce
Visibilité -9999.0 Miles terrestres
Nuages
Point de rosée 49 ° F
Humidité 76%
Précipitations 0.00 pouce
Profondeur de la couche neigeuse Non disponible.
7:32 AM 7:31 PM
Lune descendante, 32% visible
METAR EBBR 250150Z 16009KT CAVOK 14/08 Q1016 NOSIG

10-Day Weather Forecast

×

Almanac

Astronomie

Sep. 25, 2016 Lever Coucher
Temps réel
Crépuscule civil
Crépuscule nautique
Crépuscule astronomique
Lune
Durée de lumière visible
Longueur du jour
Tomorrow will be .
, % of the Moon is Illuminated

Extrêmes aujourd'hui

Country Highs Country Lows

Community

WunderPhotos

Upload Photos

1,941,519 Photos téléchargées !

WunderBlog® & News

Nearby

Qualité de l'air

  Qualité de l'air Indice de la qualité de l'air Polluant
Not available.

Épaisseur de neige

Station Depth Altitude

Activité sismique

Ville Distance Mag. Time & Date
Minimum magnitude displayed is 2.5.

Températures des eaux côtières

Lieu Température

Stations

Stations météo à proximité

Emplacement de la station Température Refroidissement éolien Point de rosée Humidité Vent Precip. Alt. Mise à jour Type